メインページ
METAR-TAF:

METAR-TAF

空港 :

ヘルシンキ, フィンランド

ヘルシンキ・ヴァンター国際空港

緯度: 60-19N, 経度: 024-58E, 海抜: 51m

現時点の気象観測

当レポートは15分前の04:50(UTC)に作成
北/北西の風 2kt
気温 -3°C
湿度 93%
気圧 1024 hPa
視程10km以上
高度2700ftの雲はほとんどない
高度3500ftの千切れ雲あり

METAR: EFHK 210450Z 33002KT 9999 FEW027 BKN035 M03/M04 Q1024 TEMPO 5000 BR BKN002

時間: 08:05 (05:05 UTC)

予報

当レポートは1時間59分前の03:06(UTC)に作成
予報は21日の 03時(UTC)から 22日の 03時(UTC)まで有効
北/北西の風 2kt
視程10km以上
高度200ftの雲はほとんどない
高度3500ftの千切れ雲あり
21日の 03時(UTC)から 21日の 08時(UTC)まで一時的に
視程: 5000m
高度200ftの千切れ雲あり
21日の 08時(UTC)から 21日の 10時(UTC)まで徐々に
高度500ftの千切れ雲あり
21日の 10時(UTC)から 21日の 12時(UTC)まで徐々に
高度1200ftの雲は散在している

TAF: EFHK 210306Z 2103/2203 33002KT 9999 FEW002 BKN035 TEMPO 2103/2108 5000 BR BKN002 BECMG 2108/2110 BKN005 BECMG 2110/2112 SCT012

4,000以上の空港の気象観測と天気予報(METAR報とTAF報)

利用可能な観測所は地図上に黄色い丸と赤い丸で示す。

丸の上にカーソルを重ねると観測所名を参照できる。

次にクリックすると気象観測と天気予報を参照できる。

マップの切り替え:黒色「×」印の緑ボタンをクリックして拡大、「-」印の緑ボタンをクリックして縮小、緑色の三角印をクリックして隣りの地図に切り替え


METAR-TAF: